sensor_id;sensor_type;location;lat;lon;timestamp;temperature;humidity
20315;DHT22;10315;50.958;13.080;2023-06-19T00:02:18;16.90;99.90
20315;DHT22;10315;50.958;13.080;2023-06-19T00:12:19;16.80;99.90
20315;DHT22;10315;50.958;13.080;2023-06-19T00:22:24;16.80;99.90
20315;DHT22;10315;50.958;13.080;2023-06-19T00:32:26;17.10;99.90
20315;DHT22;10315;50.958;13.080;2023-06-19T00:42:29;17.30;99.90
20315;DHT22;10315;50.958;13.080;2023-06-19T00:52:34;17.30;99.90
20315;DHT22;10315;50.958;13.080;2023-06-19T01:02:37;17.50;99.90
20315;DHT22;10315;50.958;13.080;2023-06-19T01:12:42;17.80;99.90
20315;DHT22;10315;50.958;13.080;2023-06-19T01:22:52;17.90;99.90
20315;DHT22;10315;50.958;13.080;2023-06-19T01:33:00;17.90;99.90
20315;DHT22;10315;50.958;13.080;2023-06-19T01:43:05;18.00;99.90
20315;DHT22;10315;50.958;13.080;2023-06-19T01:53:08;18.10;99.90
20315;DHT22;10315;50.958;13.080;2023-06-19T02:03:13;18.20;99.90
20315;DHT22;10315;50.958;13.080;2023-06-19T02:13:14;18.10;99.90
20315;DHT22;10315;50.958;13.080;2023-06-19T02:23:17;18.10;99.90
20315;DHT22;10315;50.958;13.080;2023-06-19T02:33:19;18.10;99.90
20315;DHT22;10315;50.958;13.080;2023-06-19T02:43:22;18.10;99.90
20315;DHT22;10315;50.958;13.080;2023-06-19T02:53:23;18.20;99.90
20315;DHT22;10315;50.958;13.080;2023-06-19T03:03:26;18.30;99.90
20315;DHT22;10315;50.958;13.080;2023-06-19T03:13:44;18.30;99.90
20315;DHT22;10315;50.958;13.080;2023-06-19T03:23:48;18.30;99.90
20315;DHT22;10315;50.958;13.080;2023-06-19T03:33:49;18.30;99.90
20315;DHT22;10315;50.958;13.080;2023-06-19T03:43:52;18.10;99.90
20315;DHT22;10315;50.958;13.080;2023-06-19T03:53:56;18.50;99.90
20315;DHT22;10315;50.958;13.080;2023-06-19T04:03:59;19.00;99.90
20315;DHT22;10315;50.958;13.080;2023-06-19T04:14:01;19.10;99.90
20315;DHT22;10315;50.958;13.080;2023-06-19T04:24:04;19.20;99.90
20315;DHT22;10315;50.958;13.080;2023-06-19T04:34:09;19.20;99.90
20315;DHT22;10315;50.958;13.080;2023-06-19T04:44:12;19.30;99.90
20315;DHT22;10315;50.958;13.080;2023-06-19T04:54:13;19.40;99.90
20315;DHT22;10315;50.958;13.080;2023-06-19T05:04:16;19.40;99.90
20315;DHT22;10315;50.958;13.080;2023-06-19T05:14:18;19.50;99.90
20315;DHT22;10315;50.958;13.080;2023-06-19T05:24:21;19.60;99.90
20315;DHT22;10315;50.958;13.080;2023-06-19T05:34:22;19.70;99.90
20315;DHT22;10315;50.958;13.080;2023-06-19T05:44:25;20.10;99.90
20315;DHT22;10315;50.958;13.080;2023-06-19T05:54:27;20.60;99.90
20315;DHT22;10315;50.958;13.080;2023-06-19T06:04:30;20.50;99.90
20315;DHT22;10315;50.958;13.080;2023-06-19T06:14:32;20.70;99.90
20315;DHT22;10315;50.958;13.080;2023-06-19T06:24:34;21.00;99.90
20315;DHT22;10315;50.958;13.080;2023-06-19T06:34:36;21.30;99.90
20315;DHT22;10315;50.958;13.080;2023-06-19T06:44:39;21.50;99.90
20315;DHT22;10315;50.958;13.080;2023-06-19T06:54:40;22.60;99.90
20315;DHT22;10315;50.958;13.080;2023-06-19T07:04:43;24.40;99.90
20315;DHT22;10315;50.958;13.080;2023-06-19T07:14:46;24.80;99.90
20315;DHT22;10315;50.958;13.080;2023-06-19T07:24:48;24.50;99.90
20315;DHT22;10315;50.958;13.080;2023-06-19T07:34:50;23.50;99.90
20315;DHT22;10315;50.958;13.080;2023-06-19T07:44:53;23.10;99.90
20315;DHT22;10315;50.958;13.080;2023-06-19T07:54:56;22.80;99.90
20315;DHT22;10315;50.958;13.080;2023-06-19T08:04:59;22.60;99.90
20315;DHT22;10315;50.958;13.080;2023-06-19T08:15:01;22.90;99.90
20315;DHT22;10315;50.958;13.080;2023-06-19T08:25:05;22.70;99.90
20315;DHT22;10315;50.958;13.080;2023-06-19T08:35:07;22.40;99.90
20315;DHT22;10315;50.958;13.080;2023-06-19T08:45:10;22.00;99.90
20315;DHT22;10315;50.958;13.080;2023-06-19T08:55:12;21.80;99.90
20315;DHT22;10315;50.958;13.080;2023-06-19T09:05:17;21.90;99.90
20315;DHT22;10315;50.958;13.080;2023-06-19T09:15:18;23.20;99.90
20315;DHT22;10315;50.958;13.080;2023-06-19T09:25:21;26.60;99.90
20315;DHT22;10315;50.958;13.080;2023-06-19T09:35:24;28.40;99.90
20315;DHT22;10315;50.958;13.080;2023-06-19T09:45:29;28.90;99.90
20315;DHT22;10315;50.958;13.080;2023-06-19T09:55:33;29.50;98.00
20315;DHT22;10315;50.958;13.080;2023-06-19T10:05:36;33.00;89.80
20315;DHT22;10315;50.958;13.080;2023-06-19T10:15:40;39.90;58.60
20315;DHT22;10315;50.958;13.080;2023-06-19T10:25:44;41.50;51.50
20315;DHT22;10315;50.958;13.080;2023-06-19T10:35:46;38.70;51.80
20315;DHT22;10315;50.958;13.080;2023-06-19T10:45:50;38.30;53.10
20315;DHT22;10315;50.958;13.080;2023-06-19T10:55:55;36.40;53.20
20315;DHT22;10315;50.958;13.080;2023-06-19T11:05:58;37.80;51.10
20315;DHT22;10315;50.958;13.080;2023-06-19T11:16:00;37.50;53.10
20315;DHT22;10315;50.958;13.080;2023-06-19T11:26:04;36.40;53.20
20315;DHT22;10315;50.958;13.080;2023-06-19T11:36:06;35.90;55.20
20315;DHT22;10315;50.958;13.080;2023-06-19T11:46:09;35.10;56.40
20315;DHT22;10315;50.958;13.080;2023-06-19T11:56:10;34.30;58.60
20315;DHT22;10315;50.958;13.080;2023-06-19T12:06:13;34.70;58.70
20315;DHT22;10315;50.958;13.080;2023-06-19T12:16:15;35.00;58.60
20315;DHT22;10315;50.958;13.080;2023-06-19T12:26:18;35.40;58.70
20315;DHT22;10315;50.958;13.080;2023-06-19T12:36:20;34.90;61.10
20315;DHT22;10315;50.958;13.080;2023-06-19T12:46:23;34.80;62.00
20315;DHT22;10315;50.958;13.080;2023-06-19T12:56:24;34.70;62.60
20315;DHT22;10315;50.958;13.080;2023-06-19T13:06:27;33.80;63.40
20315;DHT22;10315;50.958;13.080;2023-06-19T13:16:30;33.20;64.60
20315;DHT22;10315;50.958;13.080;2023-06-19T13:26:33;33.40;62.60
20315;DHT22;10315;50.958;13.080;2023-06-19T13:36:35;32.00;64.50
20315;DHT22;10315;50.958;13.080;2023-06-19T13:46:38;32.30;64.40
20315;DHT22;10315;50.958;13.080;2023-06-19T13:56:40;31.40;67.90
20315;DHT22;10315;50.958;13.080;2023-06-19T14:06:44;30.90;68.90
20315;DHT22;10315;50.958;13.080;2023-06-19T14:16:45;31.20;69.70
20315;DHT22;10315;50.958;13.080;2023-06-19T14:26:48;31.40;68.70
20315;DHT22;10315;50.958;13.080;2023-06-19T14:36:50;31.30;70.00
20315;DHT22;10315;50.958;13.080;2023-06-19T14:46:53;31.40;70.60
20315;DHT22;10315;50.958;13.080;2023-06-19T14:56:55;31.70;71.00
20315;DHT22;10315;50.958;13.080;2023-06-19T15:06:58;32.60;71.60
20315;DHT22;10315;50.958;13.080;2023-06-19T15:16:59;32.20;69.50
20315;DHT22;10315;50.958;13.080;2023-06-19T15:27:02;32.60;67.80
20315;DHT22;10315;50.958;13.080;2023-06-19T15:37:04;33.20;66.60
20315;DHT22;10315;50.958;13.080;2023-06-19T15:47:11;32.30;68.60
20315;DHT22;10315;50.958;13.080;2023-06-19T15:57:13;30.60;74.20
20315;DHT22;10315;50.958;13.080;2023-06-19T16:07:18;30.30;72.20
20315;DHT22;10315;50.958;13.080;2023-06-19T16:17:20;30.90;77.20
20315;DHT22;10315;50.958;13.080;2023-06-19T16:27:23;30.70;76.70
20315;DHT22;10315;50.958;13.080;2023-06-19T16:37:25;30.20;77.20
20315;DHT22;10315;50.958;13.080;2023-06-19T16:47:28;29.50;79.50
20315;DHT22;10315;50.958;13.080;2023-06-19T16:57:29;28.90;79.70
20315;DHT22;10315;50.958;13.080;2023-06-19T17:07:34;28.60;78.80
20315;DHT22;10315;50.958;13.080;2023-06-19T17:17:36;28.50;80.20
20315;DHT22;10315;50.958;13.080;2023-06-19T17:27:41;28.60;80.10
20315;DHT22;10315;50.958;13.080;2023-06-19T17:37:43;28.40;83.10
20315;DHT22;10315;50.958;13.080;2023-06-19T17:47:47;28.20;85.80
20315;DHT22;10315;50.958;13.080;2023-06-19T17:57:49;27.70;84.50
20315;DHT22;10315;50.958;13.080;2023-06-19T18:07:52;27.30;90.40
20315;DHT22;10315;50.958;13.080;2023-06-19T18:17:53;26.70;95.50
20315;DHT22;10315;50.958;13.080;2023-06-19T18:27:56;26.30;93.60
20315;DHT22;10315;50.958;13.080;2023-06-19T18:37:58;26.00;94.50
20315;DHT22;10315;50.958;13.080;2023-06-19T18:48:01;25.60;96.50
20315;DHT22;10315;50.958;13.080;2023-06-19T18:58:02;24.90;99.30
20315;DHT22;10315;50.958;13.080;2023-06-19T19:08:05;24.50;99.90
20315;DHT22;10315;50.958;13.080;2023-06-19T19:18:07;23.80;99.90
20315;DHT22;10315;50.958;13.080;2023-06-19T19:28:10;23.70;99.90
20315;DHT22;10315;50.958;13.080;2023-06-19T19:38:14;23.50;99.90
20315;DHT22;10315;50.958;13.080;2023-06-19T19:48:19;23.40;99.90
20315;DHT22;10315;50.958;13.080;2023-06-19T19:58:21;23.20;99.90
20315;DHT22;10315;50.958;13.080;2023-06-19T20:08:25;22.90;99.90
20315;DHT22;10315;50.958;13.080;2023-06-19T20:18:26;22.80;99.90
20315;DHT22;10315;50.958;13.080;2023-06-19T20:28:29;22.70;99.90
20315;DHT22;10315;50.958;13.080;2023-06-19T20:38:31;22.70;99.90
20315;DHT22;10315;50.958;13.080;2023-06-19T20:48:34;22.60;99.90
20315;DHT22;10315;50.958;13.080;2023-06-19T20:58:35;22.30;99.90
20315;DHT22;10315;50.958;13.080;2023-06-19T21:08:39;22.10;99.90
20315;DHT22;10315;50.958;13.080;2023-06-19T21:18:41;21.60;99.90
20315;DHT22;10315;50.958;13.080;2023-06-19T21:28:44;21.60;99.90
20315;DHT22;10315;50.958;13.080;2023-06-19T21:38:45;21.80;99.90
20315;DHT22;10315;50.958;13.080;2023-06-19T21:48:48;21.80;99.90
20315;DHT22;10315;50.958;13.080;2023-06-19T21:58:50;21.50;99.90
20315;DHT22;10315;50.958;13.080;2023-06-19T22:08:55;21.20;99.90
20315;DHT22;10315;50.958;13.080;2023-06-19T22:19:00;20.90;99.90
20315;DHT22;10315;50.958;13.080;2023-06-19T22:29:04;20.90;99.90
20315;DHT22;10315;50.958;13.080;2023-06-19T22:39:05;20.90;99.90
20315;DHT22;10315;50.958;13.080;2023-06-19T22:49:09;20.70;99.90
20315;DHT22;10315;50.958;13.080;2023-06-19T22:59:15;20.50;99.90
20315;DHT22;10315;50.958;13.080;2023-06-19T23:09:18;20.40;99.90
20315;DHT22;10315;50.958;13.080;2023-06-19T23:19:20;20.00;99.90
20315;DHT22;10315;50.958;13.080;2023-06-19T23:29:23;19.50;99.90
20315;DHT22;10315;50.958;13.080;2023-06-19T23:39:25;19.40;99.90
20315;DHT22;10315;50.958;13.080;2023-06-19T23:49:28;19.30;99.90
20315;DHT22;10315;50.958;13.080;2023-06-19T23:59:30;19.30;99.90
